Time;durP1;ratioP1;P1;durP2;ratioP2;P2;SDS_P1;SDS_P2;PMS_P1;PMS_P2;Temp;Humidity;BMP_temperature;BMP_pressure;BME280_temperature;BME280_humidity;BME280_pressure;Samples;Min_cycle;Max_cycle;Signal;HPM_P1;HPM_P2
2022/03/13 00:02:07;;;;;;;20.67;14.32;;;;;;;;;;4952954;28;20137;-69
2022/03/13 00:04:35;;;;;;;21.65;13.32;;;;;;;;;;4948584;28;20079;-69
2022/03/13 00:07:09;;;;;;;19.23;13.60;;;;;;;;;;4948389;28;20138;-69
2022/03/13 00:09:38;;;;;;;20.20;14.30;;;;;;;;;;4948858;28;20051;-69
2022/03/13 00:12:07;;;;;;;23.73;13.82;;;;;;;;;;4949091;28;20458;-69
2022/03/13 00:14:43;;;;;;;21.25;13.70;;;;;;;;;;4948662;28;20110;-69
2022/03/13 00:17:11;;;;;;;20.88;14.30;;;;;;;;;;4950316;28;20199;-69
2022/03/13 00:19:39;;;;;;;22.77;13.60;;;;;;;;;;4949436;28;20175;-69
2022/03/13 00:22:06;;;;;;;19.90;13.80;;;;;;;;;;4954851;28;20051;-69
2022/03/13 00:24:34;;;;;;;21.80;13.38;;;;;;;;;;4948023;28;20063;-69
2022/03/13 00:27:03;;;;;;;19.50;14.10;;;;;;;;;;4944699;28;20055;-69
2022/03/13 00:29:30;;;;;;;21.83;13.55;;;;;;;;;;4950168;28;20053;-69
2022/03/13 00:31:57;;;;;;;21.20;13.70;;;;;;;;;;4948048;28;20059;-69
2022/03/13 00:34:24;;;;;;;23.27;14.73;;;;;;;;;;4952275;28;20047;-69
2022/03/13 00:36:52;;;;;;;21.88;14.45;;;;;;;;;;4949480;28;20047;-69
2022/03/13 00:39:19;;;;;;;24.38;14.27;;;;;;;;;;4952046;28;20083;-69
2022/03/13 00:41:47;;;;;;;22.35;14.45;;;;;;;;;;4948722;28;20066;-69
2022/03/13 00:44:15;;;;;;;22.73;14.48;;;;;;;;;;4952924;28;20058;-69
2022/03/13 00:46:42;;;;;;;21.40;15.15;;;;;;;;;;4952322;28;20084;-69
2022/03/13 00:49:10;;;;;;;23.48;15.23;;;;;;;;;;4948377;28;20051;-69
2022/03/13 00:51:37;;;;;;;25.65;14.90;;;;;;;;;;4947565;28;20130;-69
2022/03/13 00:54:05;;;;;;;19.33;14.32;;;;;;;;;;4985145;28;20059;-69
2022/03/13 00:56:32;;;;;;;19.38;14.48;;;;;;;;;;4948069;28;20043;-69
2022/03/13 00:59:00;;;;;;;23.05;15.15;;;;;;;;;;4947282;28;20157;-69
2022/03/13 01:01:28;;;;;;;22.88;15.60;;;;;;;;;;4978327;28;20110;-69
2022/03/13 01:03:55;;;;;;;20.35;14.85;;;;;;;;;;4976657;28;20058;-69
2022/03/13 01:06:23;;;;;;;22.70;15.20;;;;;;;;;;4950529;28;20102;-69
2022/03/13 01:08:51;;;;;;;19.98;14.60;;;;;;;;;;4947970;28;20054;-69
2022/03/13 01:11:20;;;;;;;21.35;15.32;;;;;;;;;;4948450;28;20066;-69
2022/03/13 01:13:48;;;;;;;30.48;14.63;;;;;;;;;;4950219;28;20057;-69
2022/03/13 01:16:17;;;;;;;20.42;14.95;;;;;;;;;;4945448;28;20083;-69
2022/03/13 01:18:46;;;;;;;21.48;15.10;;;;;;;;;;4946960;28;20521;-69
2022/03/13 01:21:15;;;;;;;21.38;14.88;;;;;;;;;;4944952;28;20063;-69
2022/03/13 01:23:43;;;;;;;19.85;14.30;;;;;;;;;;4954547;28;20466;-69
2022/03/13 01:26:37;;;;;;;21.92;14.38;;;;;;;;;;4980855;28;20055;-69
2022/03/13 01:29:05;;;;;;;20.02;14.60;;;;;;;;;;4912987;29;20517;-69
2022/03/13 01:31:34;;;;;;;23.90;14.82;;;;;;;;;;4947050;28;20138;-69
2022/03/13 01:34:03;;;;;;;20.73;14.93;;;;;;;;;;4944479;28;20085;-69
2022/03/13 01:36:30;;;;;;;21.65;15.18;;;;;;;;;;4949369;28;20047;-69
2022/03/13 01:38:58;;;;;;;19.77;14.35;;;;;;;;;;4946817;28;20055;-69
2022/03/13 01:41:27;;;;;;;23.10;14.00;;;;;;;;;;4945658;28;20056;-69
2022/03/13 01:43:55;;;;;;;19.48;14.85;;;;;;;;;;4945793;28;20085;-69
2022/03/13 01:46:22;;;;;;;20.58;15.40;;;;;;;;;;4945769;28;20106;-69
2022/03/13 01:48:53;;;;;;;18.42;14.35;;;;;;;;;;4948809;28;20451;-69
2022/03/13 01:51:22;;;;;;;23.77;14.25;;;;;;;;;;4947520;28;20113;-69
2022/03/13 01:53:51;;;;;;;24.90;15.40;;;;;;;;;;4947683;28;20169;-69
2022/03/13 01:56:19;;;;;;;20.75;14.30;;;;;;;;;;4979306;28;20059;-69
2022/03/13 01:58:49;;;;;;;21.77;14.98;;;;;;;;;;4939643;28;20051;-69
2022/03/13 02:01:17;;;;;;;20.77;13.88;;;;;;;;;;4951093;28;20070;-69
2022/03/13 02:03:44;;;;;;;19.45;14.52;;;;;;;;;;4943775;28;20658;-69
2022/03/13 02:06:11;;;;;;;20.10;14.32;;;;;;;;;;4946397;28;20058;-69
2022/03/13 02:08:40;;;;;;;18.40;14.23;;;;;;;;;;4948723;28;20058;-69
2022/03/13 02:11:08;;;;;;;21.67;14.75;;;;;;;;;;4947183;28;20426;-69
2022/03/13 02:13:36;;;;;;;20.23;14.55;;;;;;;;;;4946677;28;20506;-69
2022/03/13 02:16:04;;;;;;;21.10;14.15;;;;;;;;;;4944208;28;20051;-69
2022/03/13 02:18:31;;;;;;;21.50;14.30;;;;;;;;;;4948552;28;20150;-69
2022/03/13 02:20:58;;;;;;;18.58;13.73;;;;;;;;;;4944435;28;20058;-69
2022/03/13 02:23:28;;;;;;;22.42;14.20;;;;;;;;;;4946855;28;20054;-69
2022/03/13 02:25:57;;;;;;;20.48;13.85;;;;;;;;;;4949877;28;20050;-69
2022/03/13 02:28:24;;;;;;;20.92;14.75;;;;;;;;;;4946715;28;20129;-69
2022/03/13 02:30:52;;;;;;;19.85;14.23;;;;;;;;;;4944429;28;20051;-69
2022/03/13 02:33:20;;;;;;;19.73;13.88;;;;;;;;;;4945508;28;20058;-69
2022/03/13 02:35:52;;;;;;;20.77;14.68;;;;;;;;;;4946010;28;20117;-69
2022/03/13 02:38:19;;;;;;;21.63;14.85;;;;;;;;;;4946830;28;20106;-69
2022/03/13 02:40:48;;;;;;;21.23;14.13;;;;;;;;;;4946676;28;20067;-69
2022/03/13 02:43:15;;;;;;;19.70;14.07;;;;;;;;;;4943592;28;20505;-69
2022/03/13 02:45:43;;;;;;;23.35;14.95;;;;;;;;;;4946269;28;20059;-69
2022/03/13 02:48:11;;;;;;;21.52;14.75;;;;;;;;;;4946793;28;20545;-69
2022/03/13 02:50:39;;;;;;;22.23;15.55;;;;;;;;;;4946956;28;20063;-69
2022/03/13 02:53:07;;;;;;;22.95;15.88;;;;;;;;;;4944122;28;20110;-69
2022/03/13 02:55:34;;;;;;;21.08;15.43;;;;;;;;;;4946100;28;20217;-69
2022/03/13 02:58:03;;;;;;;25.02;15.93;;;;;;;;;;4949082;28;20059;-69
2022/03/13 03:00:44;;;;;;;25.23;14.75;;;;;;;;;;4948189;28;20054;-69
2022/03/13 03:03:13;;;;;;;23.70;15.27;;;;;;;;;;4945762;28;20051;-69
2022/03/13 03:05:41;;;;;;;22.70;15.38;;;;;;;;;;4961604;28;20124;-69
2022/03/13 03:08:08;;;;;;;21.95;14.93;;;;;;;;;;4950970;28;20099;-69
2022/03/13 03:10:36;;;;;;;21.48;14.73;;;;;;;;;;4955865;28;20137;-69
2022/03/13 03:13:04;;;;;;;23.05;14.60;;;;;;;;;;4947132;28;20069;-69
2022/03/13 03:15:32;;;;;;;21.77;15.43;;;;;;;;;;4949303;28;20791;-69
2022/03/13 03:17:59;;;;;;;22.35;15.70;;;;;;;;;;4953179;28;20055;-69
2022/03/13 03:20:26;;;;;;;20.83;15.32;;;;;;;;;;4962808;28;20054;-69
2022/03/13 03:22:54;;;;;;;21.70;14.88;;;;;;;;;;4966863;28;20053;-69
2022/03/13 03:25:22;;;;;;;22.75;15.70;;;;;;;;;;4948470;28;20046;-69
2022/03/13 03:27:49;;;;;;;22.88;15.73;;;;;;;;;;4949917;28;20386;-68
2022/03/13 03:30:20;;;;;;;23.35;15.80;;;;;;;;;;4951002;28;20062;-68
2022/03/13 03:32:48;;;;;;;20.98;14.98;;;;;;;;;;4950648;28;20101;-68
2022/03/13 03:35:15;;;;;;;20.52;14.38;;;;;;;;;;4948975;28;20066;-68
2022/03/13 03:37:43;;;;;;;21.63;14.88;;;;;;;;;;4952299;28;20127;-68
2022/03/13 03:40:11;;;;;;;23.90;15.18;;;;;;;;;;4951868;28;20070;-68
2022/03/13 03:42:38;;;;;;;21.05;14.68;;;;;;;;;;4962576;28;20047;-68
2022/03/13 03:45:05;;;;;;;20.77;14.35;;;;;;;;;;4966518;28;20067;-68
2022/03/13 03:47:34;;;;;;;22.20;14.70;;;;;;;;;;4948815;28;20446;-68
2022/03/13 03:50:01;;;;;;;21.42;15.10;;;;;;;;;;4948418;28;20122;-68
2022/03/13 03:52:28;;;;;;;21.50;15.00;;;;;;;;;;4967581;28;20106;-68
2022/03/13 03:54:56;;;;;;;19.25;14.07;;;;;;;;;;4946383;28;20129;-68
2022/03/13 03:57:23;;;;;;;18.70;14.20;;;;;;;;;;4952012;28;20057;-68
2022/03/13 03:59:50;;;;;;;20.83;14.90;;;;;;;;;;4953525;28;20165;-68
2022/03/13 04:02:17;;;;;;;20.50;14.32;;;;;;;;;;4970175;28;20051;-68
2022/03/13 04:04:46;;;;;;;20.08;14.45;;;;;;;;;;4951140;28;20047;-68
2022/03/13 04:07:14;;;;;;;20.45;14.32;;;;;;;;;;4948917;28;20134;-68
2022/03/13 04:09:41;;;;;;;18.45;14.00;;;;;;;;;;4979964;28;20086;-69
2022/03/13 04:12:09;;;;;;;22.48;15.23;;;;;;;;;;4948382;28;20051;-69
2022/03/13 04:14:36;;;;;;;22.33;15.07;;;;;;;;;;4949074;28;20062;-69
2022/03/13 04:17:04;;;;;;;21.63;15.38;;;;;;;;;;4949842;28;20055;-69
2022/03/13 04:19:31;;;;;;;21.20;14.98;;;;;;;;;;4981475;28;20455;-69
2022/03/13 04:22:00;;;;;;;21.98;15.25;;;;;;;;;;4948548;28;21174;-69
2022/03/13 04:24:29;;;;;;;20.25;14.23;;;;;;;;;;4949901;28;20510;-69
2022/03/13 04:26:57;;;;;;;20.38;13.57;;;;;;;;;;4946967;28;20051;-69
2022/03/13 04:29:25;;;;;;;20.40;14.73;;;;;;;;;;4953483;28;20527;-69
2022/03/13 04:31:53;;;;;;;19.52;14.00;;;;;;;;;;4950460;28;20047;-69
2022/03/13 04:34:22;;;;;;;18.67;13.07;;;;;;;;;;4952839;28;20058;-69
2022/03/13 04:36:49;;;;;;;22.05;14.02;;;;;;;;;;4944132;28;20077;-69
2022/03/13 04:39:18;;;;;;;20.10;14.55;;;;;;;;;;4980214;28;20063;-69
2022/03/13 04:41:46;;;;;;;23.00;13.43;;;;;;;;;;4948896;28;20065;-69
2022/03/13 04:44:14;;;;;;;17.20;13.20;;;;;;;;;;4945355;28;20514;-69
2022/03/13 04:46:41;;;;;;;20.30;14.25;;;;;;;;;;4951572;28;20082;-69
2022/03/13 04:49:08;;;;;;;21.98;14.80;;;;;;;;;;4981425;28;20058;-69
2022/03/13 04:51:36;;;;;;;22.27;14.25;;;;;;;;;;4947894;28;20195;-69
2022/03/13 04:54:04;;;;;;;22.20;14.10;;;;;;;;;;4947619;28;20151;-69
2022/03/13 04:56:33;;;;;;;18.67;14.00;;;;;;;;;;4948759;28;20059;-69
2022/03/13 04:59:00;;;;;;;18.77;13.40;;;;;;;;;;4936982;28;20738;-69
2022/03/13 05:01:28;;;;;;;22.35;13.40;;;;;;;;;;4947337;28;20051;-69
2022/03/13 05:03:55;;;;;;;17.45;13.20;;;;;;;;;;4946470;28;20745;-69
2022/03/13 05:06:22;;;;;;;19.58;14.40;;;;;;;;;;4943888;28;20461;-69
2022/03/13 05:08:50;;;;;;;18.65;13.90;;;;;;;;;;4944583;28;20087;-69
2022/03/13 05:11:17;;;;;;;18.27;13.82;;;;;;;;;;4951647;28;20086;-69
2022/03/13 05:13:46;;;;;;;17.77;13.02;;;;;;;;;;4947117;28;20051;-69
2022/03/13 05:16:13;;;;;;;17.38;12.70;;;;;;;;;;4951272;28;20063;-69
2022/03/13 05:18:40;;;;;;;20.13;13.20;;;;;;;;;;4947129;28;20042;-69
2022/03/13 05:21:07;;;;;;;17.45;12.85;;;;;;;;;;4948984;28;20062;-69
2022/03/13 05:23:35;;;;;;;20.00;14.43;;;;;;;;;;4949763;28;20051;-69
2022/03/13 05:26:02;;;;;;;19.67;13.23;;;;;;;;;;4950761;28;20465;-69
2022/03/13 05:28:29;;;;;;;17.20;13.23;;;;;;;;;;4953994;28;20195;-69
2022/03/13 05:30:58;;;;;;;20.33;14.05;;;;;;;;;;4947663;28;20051;-69
2022/03/13 05:33:25;;;;;;;19.17;13.85;;;;;;;;;;4946092;28;20058;-69
2022/03/13 05:35:52;;;;;;;19.65;13.52;;;;;;;;;;4951027;28;20058;-69
2022/03/13 05:38:20;;;;;;;22.80;14.15;;;;;;;;;;4939371;28;20047;-69
2022/03/13 05:40:47;;;;;;;19.92;13.85;;;;;;;;;;4947116;28;20055;-69
2022/03/13 05:43:15;;;;;;;24.10;14.07;;;;;;;;;;4949270;28;20059;-69
2022/03/13 05:45:42;;;;;;;23.88;14.43;;;;;;;;;;4951972;28;20138;-69
2022/03/13 05:48:15;;;;;;;24.45;14.00;;;;;;;;;;4950179;28;20134;-69
2022/03/13 05:50:42;;;;;;;21.07;14.87;;;;;;;;;;4952850;28;20079;-69
2022/03/13 05:53:10;;;;;;;25.88;15.40;;;;;;;;;;4952860;28;20056;-69
2022/03/13 05:55:37;;;;;;;21.15;14.35;;;;;;;;;;4941879;28;20067;-69
2022/03/13 05:58:04;;;;;;;23.27;14.82;;;;;;;;;;4928907;28;20063;-69
2022/03/13 06:00:32;;;;;;;21.05;15.02;;;;;;;;;;4934543;28;20134;-69
2022/03/13 06:03:00;;;;;;;23.75;15.07;;;;;;;;;;4941406;28;20065;-69
2022/03/13 06:05:35;;;;;;;21.48;15.50;;;;;;;;;;4939847;28;20063;-69
2022/03/13 06:08:03;;;;;;;21.02;14.07;;;;;;;;;;4940209;28;20055;-69
2022/03/13 06:10:30;;;;;;;23.13;15.25;;;;;;;;;;4973330;28;20047;-69
2022/03/13 06:12:57;;;;;;;21.15;14.85;;;;;;;;;;4944152;28;20077;-69
2022/03/13 06:15:24;;;;;;;19.00;13.98;;;;;;;;;;4939442;28;20050;-69
2022/03/13 06:17:53;;;;;;;19.77;15.07;;;;;;;;;;4942168;28;20082;-69
2022/03/13 06:20:20;;;;;;;23.98;15.82;;;;;;;;;;4940794;28;20066;-69
2022/03/13 06:22:49;;;;;;;23.67;15.38;;;;;;;;;;4933801;29;20077;-69
2022/03/13 06:25:17;;;;;;;24.35;16.60;;;;;;;;;;4935873;28;20153;-69
2022/03/13 06:27:44;;;;;;;25.75;15.27;;;;;;;;;;4941324;28;20499;-69
2022/03/13 06:30:13;;;;;;;21.38;15.25;;;;;;;;;;4938125;28;20129;-69
2022/03/13 06:32:40;;;;;;;20.95;15.68;;;;;;;;;;4940552;29;20137;-69
2022/03/13 06:35:08;;;;;;;22.23;15.55;;;;;;;;;;4937192;28;20051;-69
2022/03/13 06:37:35;;;;;;;20.75;15.48;;;;;;;;;;4968573;28;20054;-69
2022/03/13 06:40:05;;;;;;;24.52;15.73;;;;;;;;;;4934048;28;20797;-69
2022/03/13 06:42:33;;;;;;;27.40;15.82;;;;;;;;;;4939579;29;20153;-69
2022/03/13 06:45:00;;;;;;;22.80;15.88;;;;;;;;;;4935792;29;20094;-69
2022/03/13 06:47:27;;;;;;;25.48;15.55;;;;;;;;;;4936669;29;20051;-69
2022/03/13 06:49:55;;;;;;;20.27;15.10;;;;;;;;;;4964563;28;20532;-69
2022/03/13 06:52:22;;;;;;;22.48;15.32;;;;;;;;;;4931708;29;20066;-69
2022/03/13 06:54:50;;;;;;;21.08;15.55;;;;;;;;;;4937971;29;20503;-69
2022/03/13 06:57:18;;;;;;;23.15;14.55;;;;;;;;;;4933279;29;20062;-69
2022/03/13 06:59:46;;;;;;;24.10;14.82;;;;;;;;;;4936022;29;20047;-69
2022/03/13 07:02:14;;;;;;;26.25;14.73;;;;;;;;;;4953893;28;20197;-69
2022/03/13 07:04:41;;;;;;;22.42;15.00;;;;;;;;;;4941229;28;21106;-69
2022/03/13 07:07:09;;;;;;;22.17;14.70;;;;;;;;;;4936925;28;20063;-69
2022/03/13 07:09:36;;;;;;;20.55;13.88;;;;;;;;;;4939062;28;20059;-69
2022/03/13 07:12:05;;;;;;;22.30;14.88;;;;;;;;;;4940213;28;20059;-69
2022/03/13 07:14:34;;;;;;;22.67;14.77;;;;;;;;;;4940671;28;20082;-69
2022/03/13 07:17:01;;;;;;;20.67;13.82;;;;;;;;;;4938675;28;20051;-69
2022/03/13 07:19:28;;;;;;;19.77;13.85;;;;;;;;;;4936466;28;20063;-69
2022/03/13 07:21:55;;;;;;;18.77;13.50;;;;;;;;;;4939713;28;20062;-69
2022/03/13 07:24:23;;;;;;;20.17;14.65;;;;;;;;;;4941422;28;20131;-69
2022/03/13 07:26:50;;;;;;;21.58;14.25;;;;;;;;;;4939813;28;20048;-69
2022/03/13 07:29:18;;;;;;;19.00;13.85;;;;;;;;;;4939269;28;20142;-69
2022/03/13 07:31:46;;;;;;;20.88;14.23;;;;;;;;;;4940532;28;20110;-69
2022/03/13 07:34:13;;;;;;;17.38;12.18;;;;;;;;;;4948704;28;20481;-68
2022/03/13 07:36:41;;;;;;;18.85;14.00;;;;;;;;;;4947620;28;20133;-68
2022/03/13 07:39:08;;;;;;;21.15;14.48;;;;;;;;;;4975870;28;20047;-69
2022/03/13 07:41:35;;;;;;;18.48;12.95;;;;;;;;;;4945479;28;20066;-69
2022/03/13 07:44:04;;;;;;;18.55;13.82;;;;;;;;;;4943909;28;20055;-69
2022/03/13 07:46:31;;;;;;;24.23;14.70;;;;;;;;;;4941946;28;20069;-69
2022/03/13 07:49:00;;;;;;;21.83;14.73;;;;;;;;;;4942991;29;20081;-68
2022/03/13 07:51:27;;;;;;;19.83;14.55;;;;;;;;;;4939935;28;20162;-68
2022/03/13 07:53:54;;;;;;;21.17;14.00;;;;;;;;;;4940416;28;20113;-68
2022/03/13 07:56:23;;;;;;;20.52;14.20;;;;;;;;;;4941882;28;20723;-68
2022/03/13 07:58:50;;;;;;;21.27;14.75;;;;;;;;;;4942711;28;20055;-68
2022/03/13 08:01:18;;;;;;;24.00;14.95;;;;;;;;;;4943848;28;20063;-68
2022/03/13 08:03:45;;;;;;;18.88;14.38;;;;;;;;;;4945038;28;20047;-69
2022/03/13 08:06:13;;;;;;;18.50;13.50;;;;;;;;;;4944884;28;20059;-69
2022/03/13 08:08:41;;;;;;;23.23;14.00;;;;;;;;;;4941003;28;20449;-68
2022/03/13 08:11:08;;;;;;;19.00;13.13;;;;;;;;;;4939525;28;20074;-69
2022/03/13 08:13:35;;;;;;;19.58;13.93;;;;;;;;;;4940131;28;20059;-69
2022/03/13 08:16:02;;;;;;;23.00;14.55;;;;;;;;;;4941816;28;20067;-69
2022/03/13 08:18:30;;;;;;;19.15;12.80;;;;;;;;;;4941789;28;20495;-69
2022/03/13 08:20:57;;;;;;;19.02;13.68;;;;;;;;;;4944103;28;20051;-69
2022/03/13 08:23:25;;;;;;;19.52;13.00;;;;;;;;;;4941067;28;20051;-69
2022/03/13 08:25:53;;;;;;;19.23;13.52;;;;;;;;;;4941669;28;20047;-69
2022/03/13 08:28:23;;;;;;;20.58;13.23;;;;;;;;;;4938993;28;20043;-69
2022/03/13 08:30:50;;;;;;;20.70;13.35;;;;;;;;;;4973689;28;20058;-69
2022/03/13 08:33:17;;;;;;;17.73;12.40;;;;;;;;;;4940781;28;20087;-69
2022/03/13 08:35:45;;;;;;;16.92;11.82;;;;;;;;;;4973242;28;20051;-69
2022/03/13 08:38:12;;;;;;;19.98;12.27;;;;;;;;;;4943154;28;20051;-69
2022/03/13 08:40:40;;;;;;;17.15;12.10;;;;;;;;;;4937656;28;20103;-69
2022/03/13 08:43:08;;;;;;;20.60;12.57;;;;;;;;;;4938554;28;20118;-69
2022/03/13 08:45:35;;;;;;;17.60;11.60;;;;;;;;;;4944183;28;20636;-69
2022/03/13 08:48:02;;;;;;;17.33;12.55;;;;;;;;;;4938139;28;20051;-69
2022/03/13 08:50:29;;;;;;;15.57;11.80;;;;;;;;;;4943975;28;20557;-69
2022/03/13 08:52:58;;;;;;;18.02;11.73;;;;;;;;;;4942882;28;20478;-69
2022/03/13 08:55:26;;;;;;;19.55;11.88;;;;;;;;;;4968930;28;20134;-69
2022/03/13 08:57:54;;;;;;;17.23;11.65;;;;;;;;;;4971757;28;20593;-69
2022/03/13 09:00:24;;;;;;;15.88;11.48;;;;;;;;;;4942982;28;20050;-69
2022/03/13 09:02:53;;;;;;;17.13;11.82;;;;;;;;;;4940264;28;20054;-69
2022/03/13 09:05:20;;;;;;;18.50;11.80;;;;;;;;;;4942981;28;20531;-69
2022/03/13 09:07:47;;;;;;;23.70;12.65;;;;;;;;;;4946784;28;20065;-69
2022/03/13 09:10:15;;;;;;;17.05;11.75;;;;;;;;;;4980373;28;21019;-69
2022/03/13 09:12:42;;;;;;;17.90;11.95;;;;;;;;;;4951626;28;20509;-69
2022/03/13 09:15:11;;;;;;;17.45;12.43;;;;;;;;;;4943610;28;20050;-69
2022/03/13 09:17:38;;;;;;;19.13;12.43;;;;;;;;;;4948275;28;20065;-69
2022/03/13 09:20:06;;;;;;;16.25;11.30;;;;;;;;;;4939925;28;20438;-69
2022/03/13 09:22:34;;;;;;;16.70;11.20;;;;;;;;;;4978833;28;20076;-69
2022/03/13 09:25:01;;;;;;;20.38;11.82;;;;;;;;;;4948058;28;20047;-69
2022/03/13 09:27:29;;;;;;;18.90;11.25;;;;;;;;;;4944410;28;20051;-69
2022/03/13 09:29:57;;;;;;;18.98;12.13;;;;;;;;;;4947222;28;20047;-69
2022/03/13 09:32:26;;;;;;;16.13;11.10;;;;;;;;;;4943298;28;20085;-69
2022/03/13 09:34:54;;;;;;;20.02;11.73;;;;;;;;;;4936660;28;20060;-69
2022/03/13 09:37:23;;;;;;;17.25;11.38;;;;;;;;;;4943252;28;20058;-69
2022/03/13 09:39:51;;;;;;;17.98;10.80;;;;;;;;;;4972846;28;20039;-69
2022/03/13 09:42:18;;;;;;;21.13;12.20;;;;;;;;;;4947314;28;20488;-69
2022/03/13 09:44:46;;;;;;;17.05;11.45;;;;;;;;;;4946494;28;20051;-69
2022/03/13 09:47:13;;;;;;;17.80;11.23;;;;;;;;;;4945087;28;20589;-69
2022/03/13 09:49:42;;;;;;;18.88;11.63;;;;;;;;;;4960790;28;20054;-69
2022/03/13 09:52:10;;;;;;;18.35;11.38;;;;;;;;;;4954645;28;20054;-69
2022/03/13 09:54:37;;;;;;;22.95;11.70;;;;;;;;;;4945480;28;20050;-69
2022/03/13 09:57:04;;;;;;;16.83;11.90;;;;;;;;;;4952616;28;20059;-69
2022/03/13 09:59:31;;;;;;;18.73;11.63;;;;;;;;;;4948654;28;20047;-69
2022/03/13 10:01:59;;;;;;;16.67;11.40;;;;;;;;;;4949509;28;20958;-69
2022/03/13 10:04:26;;;;;;;16.10;11.10;;;;;;;;;;4943911;28;20058;-69
2022/03/13 10:07:08;;;;;;;16.70;11.85;;;;;;;;;;4972131;28;20062;-69
2022/03/13 10:09:36;;;;;;;18.45;11.65;;;;;;;;;;4966406;28;21346;-69
2022/03/13 10:12:09;;;;;;;15.93;12.00;;;;;;;;;;4958731;28;20055;-69
2022/03/13 10:14:39;;;;;;;16.88;11.77;;;;;;;;;;4974399;28;20057;-69
2022/03/13 10:17:06;;;;;;;16.00;11.27;;;;;;;;;;4945094;28;20065;-69
2022/03/13 10:19:34;;;;;;;16.83;11.77;;;;;;;;;;4945775;28;20046;-69
2022/03/13 10:22:02;;;;;;;19.83;12.40;;;;;;;;;;4980082;28;20069;-69
2022/03/13 10:24:30;;;;;;;15.52;11.90;;;;;;;;;;4942800;28;20059;-69
2022/03/13 10:27:09;;;;;;;16.25;11.88;;;;;;;;;;4941476;28;20611;-69
2022/03/13 10:29:36;;;;;;;19.80;12.25;;;;;;;;;;4941507;28;20043;-69
2022/03/13 10:32:05;;;;;;;20.83;13.23;;;;;;;;;;4980497;28;20135;-69
2022/03/13 10:34:34;;;;;;;18.92;12.25;;;;;;;;;;4950031;28;20074;-69
2022/03/13 10:37:02;;;;;;;18.92;12.20;;;;;;;;;;4942662;28;20409;-69
2022/03/13 10:39:31;;;;;;;17.50;11.85;;;;;;;;;;4947342;28;20055;-69
2022/03/13 10:42:02;;;;;;;19.42;11.48;;;;;;;;;;4976195;28;20490;-69
2022/03/13 10:44:33;;;;;;;17.98;12.35;;;;;;;;;;4946153;28;20066;-69
2022/03/13 10:47:02;;;;;;;17.88;11.70;;;;;;;;;;4946686;28;20062;-69
2022/03/13 10:49:36;;;;;;;19.98;12.35;;;;;;;;;;4957372;28;20470;-69
2022/03/13 10:52:10;;;;;;;17.08;12.48;;;;;;;;;;4948117;28;20161;-69
2022/03/13 10:54:39;;;;;;;15.30;11.38;;;;;;;;;;4963816;28;20101;-69
2022/03/13 10:57:07;;;;;;;24.20;12.63;;;;;;;;;;4941648;28;20091;-69
2022/03/13 10:59:34;;;;;;;18.52;12.75;;;;;;;;;;4946402;28;20050;-69
2022/03/13 11:02:15;;;;;;;19.60;12.38;;;;;;;;;;4950826;28;20472;-69
2022/03/13 11:04:49;;;;;;;17.85;12.27;;;;;;;;;;4946552;28;20050;-69
2022/03/13 11:07:17;;;;;;;18.50;12.32;;;;;;;;;;4936517;28;20051;-69
2022/03/13 11:09:45;;;;;;;19.40;12.23;;;;;;;;;;4941173;28;20054;-69
2022/03/13 11:12:20;;;;;;;20.25;13.68;;;;;;;;;;4945065;28;20047;-69
2022/03/13 11:14:48;;;;;;;18.70;12.93;;;;;;;;;;4941848;28;20054;-69
2022/03/13 11:17:16;;;;;;;22.15;13.43;;;;;;;;;;4943483;28;20447;-69
2022/03/13 11:19:44;;;;;;;19.02;13.88;;;;;;;;;;4941060;28;20055;-69
2022/03/13 11:22:11;;;;;;;19.05;13.93;;;;;;;;;;4942111;28;20083;-69
2022/03/13 11:24:39;;;;;;;24.33;14.38;;;;;;;;;;4942663;28;20122;-69
2022/03/13 11:27:11;;;;;;;17.02;12.90;;;;;;;;;;4940921;28;20106;-69
2022/03/13 11:29:42;;;;;;;18.13;13.23;;;;;;;;;;4941069;28;20061;-69
2022/03/13 11:32:24;;;;;;;18.08;13.43;;;;;;;;;;4946494;28;20098;-69
2022/03/13 11:35:14;;;;;;;15.88;12.30;;;;;;;;;;4940961;28;20059;-69
2022/03/13 11:37:42;;;;;;;16.90;12.10;;;;;;;;;;4938188;28;20058;-69
2022/03/13 11:40:11;;;;;;;13.93;11.38;;;;;;;;;;4943726;28;20047;-69
2022/03/13 11:42:47;;;;;;;15.18;11.95;;;;;;;;;;4944957;28;20047;-69
2022/03/13 11:45:32;;;;;;;17.10;11.80;;;;;;;;;;4940679;28;20059;-69
2022/03/13 11:48:22;;;;;;;18.48;12.15;;;;;;;;;;4943742;28;20059;-69
2022/03/13 11:50:50;;;;;;;17.08;12.60;;;;;;;;;;4939386;28;20063;-69
2022/03/13 11:53:18;;;;;;;15.43;12.05;;;;;;;;;;4973726;28;20352;-69
2022/03/13 11:56:05;;;;;;;16.02;11.80;;;;;;;;;;4933777;28;20062;-69
2022/03/13 11:58:46;;;;;;;18.95;12.73;;;;;;;;;;4946065;28;20562;-69
2022/03/13 12:01:16;;;;;;;23.17;13.10;;;;;;;;;;4941991;28;20070;-69
2022/03/13 12:03:58;;;;;;;18.23;13.55;;;;;;;;;;4946046;28;20684;-69
2022/03/13 12:06:39;;;;;;;17.77;13.45;;;;;;;;;;4952716;28;20055;-69
2022/03/13 12:09:06;;;;;;;18.65;13.70;;;;;;;;;;4943072;28;20061;-68
2022/03/13 12:11:41;;;;;;;18.90;12.32;;;;;;;;;;4948356;28;20510;-67
2022/03/13 12:14:10;;;;;;;18.83;13.55;;;;;;;;;;4945835;28;20055;-69
2022/03/13 12:16:38;;;;;;;15.65;12.35;;;;;;;;;;4941160;28;20058;-68
2022/03/13 12:19:07;;;;;;;16.17;12.65;;;;;;;;;;4944262;28;20052;-68
2022/03/13 12:21:34;;;;;;;19.13;13.13;;;;;;;;;;4942128;28;20059;-68
2022/03/13 12:24:15;;;;;;;15.50;13.00;;;;;;;;;;4945944;28;20059;-68
2022/03/13 12:26:43;;;;;;;19.25;13.45;;;;;;;;;;4946551;28;20051;-68
2022/03/13 12:29:13;;;;;;;17.08;12.35;;;;;;;;;;4950107;28;20428;-68
2022/03/13 12:31:41;;;;;;;19.38;14.35;;;;;;;;;;4943981;28;20070;-68
2022/03/13 12:34:08;;;;;;;21.13;14.98;;;;;;;;;;4946414;28;20062;-68
2022/03/13 12:36:36;;;;;;;21.30;13.23;;;;;;;;;;4942873;28;20055;-68
2022/03/13 12:39:04;;;;;;;16.20;13.18;;;;;;;;;;4945056;28;20055;-67
2022/03/13 12:41:32;;;;;;;13.55;11.10;;;;;;;;;;4949852;28;20054;-68
2022/03/13 12:44:04;;;;;;;13.38;10.32;;;;;;;;;;4944781;28;20470;-68
2022/03/13 12:46:33;;;;;;;16.23;10.37;;;;;;;;;;4950252;28;20057;-68
2022/03/13 12:49:01;;;;;;;13.60;10.82;;;;;;;;;;4948970;28;20146;-68
2022/03/13 12:51:34;;;;;;;13.38;10.10;;;;;;;;;;4947832;28;20426;-68
2022/03/13 12:54:03;;;;;;;13.23;10.02;;;;;;;;;;4947406;28;20055;-68
2022/03/13 12:56:30;;;;;;;17.90;11.23;;;;;;;;;;4948904;28;20054;-68
2022/03/13 12:58:58;;;;;;;18.80;11.38;;;;;;;;;;4947612;28;20043;-68
2022/03/13 13:01:25;;;;;;;16.90;11.13;;;;;;;;;;4974372;28;20087;-68
2022/03/13 13:03:55;;;;;;;13.10;9.35;;;;;;;;;;4943113;28;20557;-68
2022/03/13 13:06:34;;;;;;;13.25;10.60;;;;;;;;;;4946516;28;20055;-68
2022/03/13 13:09:01;;;;;;;9.25;7.55;;;;;;;;;;4947446;28;20494;-68
2022/03/13 13:11:33;;;;;;;10.05;8.48;;;;;;;;;;4980939;28;20047;-68
2022/03/13 13:14:01;;;;;;;9.85;8.35;;;;;;;;;;4962115;28;20051;-68
2022/03/13 13:16:31;;;;;;;10.10;8.43;;;;;;;;;;4948386;28;20486;-68
2022/03/13 13:19:00;;;;;;;9.50;8.50;;;;;;;;;;4948393;28;20556;-68
2022/03/13 13:21:34;;;;;;;15.05;8.73;;;;;;;;;;4985087;28;20051;-68
2022/03/13 13:24:01;;;;;;;10.75;9.10;;;;;;;;;;4949468;28;20475;-68
2022/03/13 13:26:42;;;;;;;11.40;9.27;;;;;;;;;;4965100;28;20122;-68
2022/03/13 13:29:09;;;;;;;11.80;9.63;;;;;;;;;;4952135;28;20051;-68
2022/03/13 13:31:37;;;;;;;10.90;9.35;;;;;;;;;;4960213;28;20194;-68
2022/03/13 13:34:19;;;;;;;11.55;9.23;;;;;;;;;;4954774;28;20449;-68
2022/03/13 13:36:46;;;;;;;9.95;8.95;;;;;;;;;;4949743;28;20134;-68
2022/03/13 13:39:13;;;;;;;10.88;9.00;;;;;;;;;;4976064;28;20054;-68
2022/03/13 13:41:41;;;;;;;11.50;8.43;;;;;;;;;;4950607;28;20109;-68
2022/03/13 13:44:08;;;;;;;10.23;8.77;;;;;;;;;;4952488;28;20557;-68
2022/03/13 13:46:35;;;;;;;13.18;9.70;;;;;;;;;;4952633;28;20523;-68
2022/03/13 13:49:02;;;;;;;20.30;12.25;;;;;;;;;;4953258;28;20429;-68
2022/03/13 13:51:35;;;;;;;12.20;8.10;;;;;;;;;;4954341;28;20050;-68
2022/03/13 13:54:14;;;;;;;11.38;8.20;;;;;;;;;;4953062;28;20070;-68
2022/03/13 13:56:42;;;;;;;12.02;8.80;;;;;;;;;;4980164;28;20054;-71
2022/03/13 13:59:21;;;;;;;9.07;7.93;;;;;;;;;;4956571;28;20046;-69
2022/03/13 14:01:49;;;;;;;13.38;8.95;;;;;;;;;;4954863;28;20153;-68
2022/03/13 14:04:16;;;;;;;14.23;9.98;;;;;;;;;;4949380;28;20050;-68
2022/03/13 14:06:46;;;;;;;16.67;10.70;;;;;;;;;;4948998;28;20050;-68
2022/03/13 14:09:13;;;;;;;8.93;7.80;;;;;;;;;;4956827;28;20467;-68
2022/03/13 14:11:42;;;;;;;11.60;8.88;;;;;;;;;;4957244;28;20124;-68
2022/03/13 14:14:10;;;;;;;13.68;9.43;;;;;;;;;;4981656;28;20094;-68
2022/03/13 14:16:38;;;;;;;12.35;9.38;;;;;;;;;;4973534;28;20051;-68
2022/03/13 14:19:06;;;;;;;10.93;9.00;;;;;;;;;;4981688;28;20081;-68
2022/03/13 14:21:34;;;;;;;10.48;8.80;;;;;;;;;;4956457;28;20047;-69
2022/03/13 14:24:03;;;;;;;13.18;9.43;;;;;;;;;;4956681;28;20053;-69
2022/03/13 14:26:30;;;;;;;10.90;9.25;;;;;;;;;;4959414;28;20058;-69
2022/03/13 14:28:58;;;;;;;12.07;9.57;;;;;;;;;;4954515;28;20130;-69